Blair, Illinois
Current Conditions -  °F | °C
As of 3:35 PM on Friday 31 Oct 2014 (Local Time) from KFOA Reporting Station
Clear Clear  
Wind Chill: 35°   Ceiling: Unl
Heat Index: 44°   Visibility: 10mi
Dew Point: 26°   Wind: 23mph
Humidity: 49%   Direction: 330°NNW
Pressure: 30.19"   Gusts: 33mph
Location:  38.8267°N, 88.5024°W
Report Text: KFOA 312035Z AUTO 33020G29KT 10SM CLR 07/M03 A3019 RMK AO2 T00671035
Loading
Personal Weather Stations






























Interactive Weather Map
Tropical Storm Tracking
New forecast layout! Learn more

10-Day Weather Forecast

Advertisements
Track Severe Weather on mobile